createdAt,value
2016-09-22T00:00:27.876Z,1002.2
2016-09-22T00:01:37.888Z,1002.22
2016-09-22T00:02:47.861Z,1002.21
2016-09-22T00:03:58.148Z,1002.23
2016-09-22T00:05:07.500Z,1002.19
2016-09-22T00:06:16.876Z,1002.17
2016-09-22T00:07:27.153Z,1002.22
2016-09-22T00:08:36.825Z,1002.23
2016-09-22T00:09:46.816Z,1002.24
2016-09-22T00:10:57.118Z,1002.25
2016-09-22T00:12:07.111Z,1002.27
2016-09-22T00:13:17.088Z,1002.31
2016-09-22T00:14:27.055Z,1002.31
2016-09-22T00:15:37.350Z,1002.32
2016-09-22T00:16:47.639Z,1002.28
2016-09-22T00:17:57.929Z,1002.3
2016-09-22T00:19:08.219Z,1002.28
2016-09-22T00:20:17.891Z,1002.29
2016-09-22T00:21:28.178Z,1002.29
2016-09-22T00:22:38.156Z,1002.29
2016-09-22T00:23:47.824Z,1002.27
2016-09-22T00:24:58.113Z,1002.28
2016-09-22T00:26:08.095Z,1002.31
2016-09-22T00:27:18.092Z,1002.32
2016-09-22T00:28:28.114Z,1002.3
2016-09-22T00:29:38.101Z,1002.26
2016-09-22T00:30:48.083Z,1002.28
2016-09-22T00:31:58.393Z,1002.26
2016-09-22T00:33:08.373Z,1002.3
2016-09-22T00:34:18.673Z,1002.34
2016-09-22T00:35:28.658Z,1002.32
2016-09-22T00:36:38.639Z,1002.32
2016-09-22T00:37:48.953Z,1002.35
2016-09-22T00:38:59.227Z,1002.37
2016-09-22T00:40:09.204Z,1002.36
2016-09-22T00:41:19.168Z,1002.32
2016-09-22T00:42:29.475Z,1002.35
2016-09-22T00:43:39.761Z,1002.34
2016-09-22T00:44:50.049Z,1002.35
2016-09-22T00:45:59.747Z,1002.33
2016-09-22T00:47:09.719Z,1002.35
2016-09-22T00:48:19.693Z,1002.35
2016-09-22T00:49:29.694Z,1002.31
2016-09-22T00:50:39.686Z,1002.32
2016-09-22T00:51:49.662Z,1002.33
2016-09-22T00:52:59.643Z,1002.34
2016-09-22T00:54:09.331Z,1002.34
2016-09-22T00:55:19.022Z,1002.4
2016-09-22T00:56:29.313Z,1002.4
2016-09-22T00:57:39.286Z,1002.38
2016-09-22T00:58:49.586Z,1002.37
2016-09-22T00:59:59.870Z,1002.38
2016-09-22T01:01:10.170Z,1002.39
2016-09-22T01:02:20.149Z,1002.36
2016-09-22T01:03:59.830Z,1002.36
2016-09-22T01:05:09.812Z,1002.39
2016-09-22T01:06:20.114Z,1002.36
2016-09-22T01:07:30.096Z,1002.37
2016-09-22T01:08:40.385Z,1002.37
2016-09-22T01:09:50.377Z,1002.36
2016-09-22T01:11:00.675Z,1002.41
2016-09-22T01:12:10.658Z,1002.36
2016-09-22T01:13:20.951Z,1002.31
2016-09-22T01:14:31.255Z,1002.31
2016-09-22T01:15:40.935Z,1002.31
2016-09-22T01:16:50.652Z,1002.32
2016-09-22T01:18:00.625Z,1002.32
2016-09-22T01:19:10.913Z,1002.34
2016-09-22T01:20:21.200Z,1002.34
2016-09-22T01:21:31.179Z,1002.32
2016-09-22T01:22:41.466Z,1002.34
2016-09-22T01:23:51.459Z,1002.35
2016-09-22T01:25:01.429Z,1002.33
2016-09-22T01:26:11.727Z,1002.3
2016-09-22T01:27:21.704Z,1002.32
2016-09-22T01:28:32.000Z,1002.31
2016-09-22T01:29:41.975Z,1002.32
2016-09-22T01:30:51.950Z,1002.28
2016-09-22T01:32:01.927Z,1002.32
2016-09-22T01:33:11.900Z,1002.29
2016-09-22T01:34:21.884Z,1002.33
2016-09-22T01:35:31.862Z,1002.33
2016-09-22T01:36:41.887Z,1002.35
2016-09-22T01:37:51.856Z,1002.35
2016-09-22T01:39:01.527Z,1002.35
2016-09-22T01:40:11.827Z,1002.34
2016-09-22T01:41:21.810Z,1002.39
2016-09-22T01:42:31.790Z,1002.35
2016-09-22T01:43:42.065Z,1002.39
2016-09-22T01:44:52.050Z,1002.36
2016-09-22T01:46:02.339Z,1002.39
2016-09-22T01:47:12.018Z,1002.4
2016-09-22T01:48:21.986Z,1002.39
2016-09-22T01:49:32.280Z,1002.41
2016-09-22T01:50:42.256Z,1002.39
2016-09-22T01:51:52.535Z,1002.36
2016-09-22T01:53:02.844Z,1002.39
2016-09-22T01:54:12.817Z,1002.41
2016-09-22T01:55:23.104Z,1002.4
2016-09-22T01:56:33.389Z,1002.43
2016-09-22T01:57:43.669Z,1002.45
2016-09-22T01:58:53.942Z,1002.42
2016-09-22T02:00:03.919Z,1002.46
2016-09-22T02:01:13.585Z,1002.44
2016-09-22T02:02:23.887Z,1002.5
2016-09-22T02:03:33.866Z,1002.49
2016-09-22T02:04:43.836Z,1002.45
2016-09-22T02:05:53.196Z,1002.45
2016-09-22T02:07:03.184Z,1002.46
2016-09-22T02:08:12.847Z,1002.45
2016-09-22T02:09:22.842Z,1002.46
2016-09-22T02:10:33.124Z,1002.43
2016-09-22T02:11:42.806Z,1002.46
2016-09-22T02:12:53.082Z,1002.49
2016-09-22T02:14:03.359Z,1002.46
2016-09-22T02:15:13.027Z,1002.45
2016-09-22T02:16:23.319Z,1002.48
2016-09-22T02:17:33.609Z,1002.45
2016-09-22T02:18:44.148Z,1002.5
2016-09-22T02:19:54.454Z,1002.47
2016-09-22T02:21:04.738Z,1002.49
2016-09-22T02:22:14.720Z,1002.52
2016-09-22T02:23:25.032Z,1002.48
2016-09-22T02:24:34.697Z,1002.47
2016-09-22T02:25:44.977Z,1002.46
2016-09-22T02:26:54.959Z,1002.47
2016-09-22T02:28:04.944Z,1002.47
2016-09-22T02:29:14.927Z,1002.49
2016-09-22T02:30:24.598Z,1002.48
2016-09-22T02:31:34.891Z,1002.53
2016-09-22T02:32:45.175Z,1002.52
2016-09-22T02:33:54.528Z,1002.54
2016-09-22T02:35:04.514Z,1002.5
2016-09-22T02:36:14.802Z,1002.5
2016-09-22T02:37:24.457Z,1002.55
2016-09-22T02:38:34.430Z,1002.54
2016-09-22T02:39:44.401Z,1002.5
2016-09-22T02:40:53.765Z,1002.54
2016-09-22T02:42:04.045Z,1002.54
2016-09-22T02:43:14.343Z,1002.53
2016-09-22T02:44:24.342Z,1002.53
2016-09-22T02:45:34.309Z,1002.55
2016-09-22T02:46:44.288Z,1002.54
2016-09-22T02:47:54.584Z,1002.6
2016-09-22T02:49:04.264Z,1002.62
2016-09-22T02:50:14.545Z,1002.61
2016-09-22T02:51:24.832Z,1002.61
2016-09-22T02:52:35.109Z,1002.61
2016-09-22T02:53:45.407Z,1002.55
2016-09-22T02:54:55.377Z,1002.59
2016-09-22T02:56:05.349Z,1002.58
2016-09-22T02:57:15.037Z,1002.56
2016-09-22T02:58:25.005Z,1002.54
2016-09-22T02:59:34.679Z,1002.55
2016-09-22T03:00:44.967Z,1002.53
2016-09-22T03:32:36.362Z,1002.73
2016-09-22T03:33:46.344Z,1002.75
2016-09-22T03:34:56.329Z,1002.75
2016-09-22T03:36:06.611Z,1002.77
2016-09-22T03:37:16.893Z,1002.78
2016-09-22T03:38:27.108Z,1002.83
2016-09-22T03:39:37.388Z,1002.88
2016-09-22T03:40:47.678Z,1002.87
2016-09-22T03:41:57.370Z,1002.86
2016-09-22T03:43:07.341Z,1002.9
2016-09-22T03:44:17.013Z,1002.88
2016-09-22T03:45:26.991Z,1002.9
2016-09-22T03:46:36.976Z,1002.85
2016-09-22T03:47:46.942Z,1002.87
2016-09-22T03:48:57.236Z,1002.85
2016-09-22T03:50:07.525Z,1002.88
2016-09-22T03:51:17.797Z,1002.92
2016-09-22T03:52:28.089Z,1002.86
2016-09-22T03:53:38.381Z,1002.9
2016-09-22T03:54:48.361Z,1002.89
2016-09-22T03:55:58.330Z,1002.89
2016-09-22T03:57:07.991Z,1002.92
2016-09-22T03:58:17.966Z,1002.96
2016-09-22T03:59:27.948Z,1002.91
2016-09-22T04:00:37.599Z,1002.96
2016-09-22T04:01:47.271Z,1002.96
2016-09-22T04:02:57.575Z,1002.95
2016-09-22T04:04:07.250Z,1002.98
2016-09-22T04:05:17.216Z,1002.93
2016-09-22T04:06:27.183Z,1002.91
2016-09-22T04:07:37.155Z,1002.93
2016-09-22T04:08:47.426Z,1002.91
2016-09-22T04:09:57.094Z,1002.94
2016-09-22T04:11:07.376Z,1002.93
2016-09-22T04:12:17.664Z,1002.95
2016-09-22T04:13:27.951Z,1002.98
2016-09-22T04:14:37.932Z,1002.97
2016-09-22T04:15:47.902Z,1002.97
2016-09-22T04:16:58.172Z,1002.97
2016-09-22T04:18:07.838Z,1002.98
2016-09-22T04:19:17.805Z,1003.05
2016-09-22T04:20:27.781Z,1003.02
2016-09-22T04:21:37.763Z,1002.97
2016-09-22T04:22:48.064Z,1002.98
2016-09-22T04:23:58.031Z,1002.99
2016-09-22T04:25:08.316Z,1003.01
2016-09-22T04:26:18.006Z,1002.99
2016-09-22T04:27:27.665Z,1003.02
2016-09-22T04:28:37.956Z,1003.04
2016-09-22T04:29:47.949Z,1003.01
2016-09-22T04:30:58.234Z,1003.03
2016-09-22T04:32:08.529Z,1003.03
2016-09-22T04:33:18.190Z,1003.06
2016-09-22T04:34:28.168Z,1003.03
2016-09-22T04:35:38.122Z,1003.07
2016-09-22T04:36:48.112Z,1003.09
2016-09-22T04:37:57.795Z,1003.1
2016-09-22T04:39:07.460Z,1003.09
2016-09-22T04:40:17.757Z,1003.11
2016-09-22T04:41:27.429Z,1003.16
2016-09-22T04:42:37.408Z,1003.2
2016-09-22T04:43:47.082Z,1003.17
2016-09-22T04:44:57.393Z,1003.17
2016-09-22T04:46:07.675Z,1003.2
2016-09-22T04:47:17.945Z,1003.2
2016-09-22T04:48:27.308Z,1003.21
2016-09-22T04:49:36.974Z,1003.26
2016-09-22T04:50:46.953Z,1003.22
2016-09-22T04:51:57.239Z,1003.23
2016-09-22T04:53:07.550Z,1003.27
2016-09-22T04:54:17.546Z,1003.26
2016-09-22T04:55:27.528Z,1003.26
2016-09-22T04:56:37.509Z,1003.28
2016-09-22T04:57:47.795Z,1003.3
2016-09-22T04:58:57.769Z,1003.32
2016-09-22T05:00:07.740Z,1003.34
2016-09-22T05:01:18.035Z,1003.34
2016-09-22T05:02:28.318Z,1003.36
2016-09-22T05:03:38.615Z,1003.31
2016-09-22T05:04:48.916Z,1003.35
2016-09-22T05:05:59.219Z,1003.36
2016-09-22T05:07:09.190Z,1003.39
2016-09-22T05:08:19.174Z,1003.41
2016-09-22T05:09:29.451Z,1003.38
2016-09-22T05:10:39.139Z,1003.39
2016-09-22T05:11:49.433Z,1003.43
2016-09-22T05:12:59.727Z,1003.43
2016-09-22T05:14:09.403Z,1003.5
2016-09-22T05:15:19.686Z,1003.55
2016-09-22T05:16:29.357Z,1003.53
2016-09-22T05:17:39.341Z,1003.55
2016-09-22T05:18:49.025Z,1003.57
2016-09-22T05:19:59.297Z,1003.55
2016-09-22T05:21:08.662Z,1003.58
2016-09-22T05:22:18.948Z,1003.54
2016-09-22T05:23:28.639Z,1003.6
2016-09-22T05:24:38.619Z,1003.57
2016-09-22T05:25:48.299Z,1003.62
2016-09-22T05:26:58.278Z,1003.64
2016-09-22T05:28:08.584Z,1003.61
2016-09-22T05:29:18.249Z,1003.6
2016-09-22T05:30:28.530Z,1003.59
2016-09-22T05:31:38.812Z,1003.61
2016-09-22T05:32:49.103Z,1003.67
2016-09-22T05:33:59.088Z,1003.69
2016-09-22T05:35:08.767Z,1003.66
2016-09-22T05:36:18.437Z,1003.7
2016-09-22T05:37:28.110Z,1003.72
2016-09-22T05:38:38.090Z,1003.7
2016-09-22T05:39:48.078Z,1003.73
2016-09-22T05:40:58.379Z,1003.71
2016-09-22T05:42:08.667Z,1003.77
2016-09-22T05:43:18.960Z,1003.78
2016-09-22T05:44:29.251Z,1003.81
2016-09-22T05:45:39.538Z,1003.85
2016-09-22T05:46:49.818Z,1003.87
2016-09-22T05:48:00.096Z,1003.83
2016-09-22T05:49:10.398Z,1003.85
2016-09-22T05:50:20.704Z,1003.81
2016-09-22T05:51:30.973Z,1003.82
2016-09-22T05:52:40.966Z,1003.83
2016-09-22T05:53:50.939Z,1003.86
2016-09-22T05:55:00.922Z,1003.85
2016-09-22T05:56:11.212Z,1003.84
2016-09-22T05:57:21.204Z,1003.91
2016-09-22T05:58:31.177Z,1003.89
2016-09-22T05:59:41.467Z,1003.91
2016-09-22T06:00:51.745Z,1003.92
2016-09-22T06:02:01.716Z,1003.9
2016-09-22T06:03:11.698Z,1003.94
2016-09-22T06:04:21.988Z,1003.98
2016-09-22T06:05:31.360Z,1004.02
2016-09-22T06:06:40.719Z,1004.01
2016-09-22T06:07:50.399Z,1004.01
2016-09-22T06:09:00.682Z,1004.09
2016-09-22T06:10:10.978Z,1004.03
2016-09-22T06:11:20.953Z,1004.05
2016-09-22T06:12:31.247Z,1004.03
2016-09-22T06:13:41.213Z,1004.07
2016-09-22T06:14:50.885Z,1004.03
2016-09-22T06:16:01.183Z,1004.07
2016-09-22T06:17:11.467Z,1004.13
2016-09-22T06:18:21.150Z,1004.13
2016-09-22T06:19:31.148Z,1004.18
2016-09-22T06:20:41.125Z,1004.14
2016-09-22T06:21:50.785Z,1004.14
2016-09-22T06:23:00.771Z,1004.16
2016-09-22T06:24:10.438Z,1004.14
2016-09-22T06:25:20.729Z,1004.21
2016-09-22T06:26:30.717Z,1004.19
2016-09-22T06:27:40.384Z,1004.22
2016-09-22T06:28:50.060Z,1004.16
2016-09-22T06:29:59.747Z,1004.16
2016-09-22T06:31:10.034Z,1004.21
2016-09-22T06:32:19.703Z,1004.2
2016-09-22T06:33:29.997Z,1004.19
2016-09-22T06:34:40.299Z,1004.19
2016-09-22T06:35:50.605Z,1004.18
2016-09-22T06:37:00.893Z,1004.2
2016-09-22T06:38:11.180Z,1004.22
2016-09-22T06:39:21.450Z,1004.22
2016-09-22T06:40:31.723Z,1004.26
2016-09-22T06:41:42.014Z,1004.22
2016-09-22T06:42:51.985Z,1004.2
2016-09-22T06:44:01.992Z,1004.23
2016-09-22T06:45:11.658Z,1004.24
2016-09-22T06:46:21.644Z,1004.27
2016-09-22T06:47:31.619Z,1004.31
2016-09-22T06:48:41.608Z,1004.31
2016-09-22T06:49:51.905Z,1004.33
2016-09-22T06:51:01.568Z,1004.31
2016-09-22T06:52:11.245Z,1004.36
2016-09-22T06:53:21.535Z,1004.38
2016-09-22T06:54:31.817Z,1004.4
2016-09-22T06:55:42.110Z,1004.4
2016-09-22T06:56:52.083Z,1004.45
2016-09-22T06:58:02.057Z,1004.46
2016-09-22T06:59:12.349Z,1004.49
2016-09-22T07:00:22.628Z,1004.5
2016-09-22T07:01:31.982Z,1004.49
2016-09-22T07:02:41.988Z,1004.48
2016-09-22T07:03:51.975Z,1004.52
2016-09-22T07:05:02.253Z,1004.5
2016-09-22T07:06:12.539Z,1004.5
2016-09-22T07:07:22.583Z,1004.49
2016-09-22T07:08:32.256Z,1004.53
2016-09-22T07:09:42.565Z,1004.54
2016-09-22T07:10:52.871Z,1004.55
2016-09-22T07:12:02.557Z,1004.55
2016-09-22T07:13:12.230Z,1004.58
2016-09-22T07:14:22.542Z,1004.55
2016-09-22T07:15:32.528Z,1004.55
2016-09-22T07:16:42.823Z,1004.65
2016-09-22T07:17:53.107Z,1004.63
2016-09-22T07:19:03.099Z,1004.68
2016-09-22T07:20:13.391Z,1004.69
2016-09-22T07:21:23.688Z,1004.72
2016-09-22T07:22:33.678Z,1004.73
2016-09-22T07:23:43.372Z,1004.72
2016-09-22T07:24:53.658Z,1004.77
2016-09-22T07:26:03.945Z,1004.79
2016-09-22T07:27:14.245Z,1004.78
2016-09-22T07:28:23.597Z,1004.78
2016-09-22T07:29:33.575Z,1004.84
2016-09-22T07:30:43.865Z,1004.85
2016-09-22T07:31:53.249Z,1004.86
2016-09-22T07:33:02.931Z,1004.84
2016-09-22T07:34:13.216Z,1004.85
2016-09-22T07:35:22.885Z,1004.9
2016-09-22T07:36:32.872Z,1004.88
2016-09-22T07:37:42.891Z,1004.87
2016-09-22T07:38:52.859Z,1004.85
2016-09-22T07:40:03.144Z,1004.86
2016-09-22T07:41:13.120Z,1004.85
2016-09-22T07:42:23.118Z,1004.88
2016-09-22T07:43:33.092Z,1004.91
2016-09-22T07:44:43.092Z,1004.97
2016-09-22T07:45:53.392Z,1004.91
2016-09-22T07:47:03.387Z,1004.92
2016-09-22T07:48:13.070Z,1004.99
2016-09-22T07:49:22.739Z,1005
2016-09-22T07:50:32.722Z,1005.01
2016-09-22T07:51:42.688Z,1005.01
2016-09-22T07:52:52.346Z,1005.05
2016-09-22T07:54:02.332Z,1005.03
2016-09-22T07:55:12.627Z,1004.99
2016-09-22T07:56:22.925Z,1005.02
2016-09-22T07:57:32.597Z,1005.04
2016-09-22T07:58:42.580Z,1005.06
2016-09-22T07:59:52.892Z,1005.03
2016-09-22T08:01:03.203Z,1005.06
2016-09-22T08:02:13.491Z,1005.05
2016-09-22T08:03:23.480Z,1005.1
2016-09-22T08:04:33.767Z,1005.12
2016-09-22T08:05:44.055Z,1005.12
2016-09-22T08:06:54.347Z,1005.16
2016-09-22T08:08:04.627Z,1005.12
2016-09-22T08:09:14.939Z,1005.15
2016-09-22T08:10:24.911Z,1005.17
2016-09-22T08:11:34.928Z,1005.19
2016-09-22T08:12:45.224Z,1005.22
2016-09-22T08:13:55.521Z,1005.24
2016-09-22T08:15:05.195Z,1005.22
2016-09-22T08:16:15.170Z,1005.2
2016-09-22T08:17:25.447Z,1005.19
2016-09-22T08:18:35.119Z,1005.15
2016-09-22T08:19:45.430Z,1005.18
2016-09-22T08:20:55.716Z,1005.23
2016-09-22T08:22:05.990Z,1005.17
2016-09-22T08:23:16.281Z,1005.16
2016-09-22T08:24:26.257Z,1005.16
2016-09-22T08:25:36.244Z,1005.16
2016-09-22T08:26:46.561Z,1005.15
2016-09-22T08:27:56.554Z,1005.12
2016-09-22T08:29:06.544Z,1005.11
2016-09-22T08:30:16.827Z,1005.14
2016-09-22T08:31:27.133Z,1005.15
2016-09-22T08:32:37.419Z,1005.13
2016-09-22T08:33:47.717Z,1005.18
2016-09-22T08:34:58.013Z,1005.15
2016-09-22T08:36:08.305Z,1005.13
2016-09-22T08:37:18.300Z,1005.16
2016-09-22T08:38:28.595Z,1005.2
2016-09-22T08:39:38.584Z,1005.16
2016-09-22T08:40:48.867Z,1005.18
2016-09-22T08:41:58.853Z,1005.18
2016-09-22T08:43:09.181Z,1005.17
2016-09-22T08:44:19.482Z,1005.18
2016-09-22T08:45:29.160Z,1005.15
2016-09-22T08:46:39.450Z,1005.21
2016-09-22T08:47:49.131Z,1005.23
2016-09-22T08:48:59.120Z,1005.21
2016-09-22T08:50:08.780Z,1005.23
2016-09-22T08:51:18.798Z,1005.24
2016-09-22T08:52:29.115Z,1005.21
2016-09-22T08:53:39.148Z,1005.22
2016-09-22T08:54:49.142Z,1005.2
2016-09-22T08:55:58.819Z,1005.2
2016-09-22T08:57:08.501Z,1005.22
2016-09-22T08:58:17.557Z,1005.23
2016-09-22T08:59:27.861Z,1005.2
2016-09-22T09:00:37.861Z,1005.23
2016-09-22T09:01:47.226Z,1005.22
2016-09-22T09:02:56.909Z,1005.2
2016-09-22T09:04:07.228Z,1005.17
2016-09-22T09:05:17.562Z,1005.17
2016-09-22T09:06:27.854Z,1005.14
2016-09-22T09:07:37.835Z,1005.13
2016-09-22T09:08:47.821Z,1005.13
2016-09-22T09:09:58.113Z,1005.18
2016-09-22T09:11:08.128Z,1005.13
2016-09-22T09:12:18.118Z,1005.14
2016-09-22T09:13:28.095Z,1005.16
2016-09-22T09:14:38.081Z,1005.15
2016-09-22T09:15:48.071Z,1005.17
2016-09-22T09:16:57.738Z,1005.12
2016-09-22T09:18:07.730Z,1005.19
2016-09-22T09:19:18.011Z,1005.21
2016-09-22T09:20:28.309Z,1005.19
2016-09-22T09:21:38.291Z,1005.19
2016-09-22T09:22:48.602Z,1005.17
2016-09-22T09:23:58.580Z,1005.2
2016-09-22T09:25:08.556Z,1005.24
2016-09-22T09:26:18.247Z,1005.2
2016-09-22T09:27:28.531Z,1005.23
2016-09-22T09:28:38.507Z,1005.23
2016-09-22T09:29:48.799Z,1005.22
2016-09-22T09:30:59.104Z,1005.23
2016-09-22T09:32:09.399Z,1005.2
2016-09-22T09:33:19.731Z,1005.19
2016-09-22T09:34:29.735Z,1005.23
2016-09-22T09:35:39.420Z,1005.22
2016-09-22T09:36:49.413Z,1005.2
2016-09-22T09:37:59.388Z,1005.22
2016-09-22T09:39:09.377Z,1005.17
2016-09-22T09:40:19.362Z,1005.17
2016-09-22T09:41:29.369Z,1005.2
2016-09-22T09:42:39.351Z,1005.2
2016-09-22T09:43:49.345Z,1005.21
2016-09-22T09:44:59.628Z,1005.17
2016-09-22T09:46:09.920Z,1005.22
2016-09-22T09:47:20.211Z,1005.23
2016-09-22T09:48:30.190Z,1005.24
2016-09-22T09:49:40.180Z,1005.25
2016-09-22T09:50:49.547Z,1005.24
2016-09-22T09:51:59.229Z,1005.19
2016-09-22T09:53:09.525Z,1005.22
2016-09-22T09:54:19.518Z,1005.25
2016-09-22T09:55:29.521Z,1005.29
2016-09-22T09:56:39.850Z,1005.29
2016-09-22T09:57:50.156Z,1005.26
2016-09-22T09:59:00.138Z,1005.24
2016-09-22T10:00:10.120Z,1005.31
2016-09-22T10:01:20.103Z,1005.23
2016-09-22T10:02:30.394Z,1005.22
2016-09-22T10:03:40.389Z,1005.23
2016-09-22T10:04:50.378Z,1005.22
2016-09-22T10:06:00.664Z,1005.16
2016-09-22T10:07:10.956Z,1005.2
2016-09-22T10:08:20.327Z,1005.2
2016-09-22T10:09:30.644Z,1005.17
2016-09-22T10:10:40.321Z,1005.2
2016-09-22T10:11:50.613Z,1005.23
2016-09-22T10:13:00.904Z,1005.24
2016-09-22T10:14:11.210Z,1005.27
2016-09-22T10:15:21.511Z,1005.27
2016-09-22T10:16:31.506Z,1005.24
2016-09-22T10:17:41.488Z,1005.22
2016-09-22T10:18:51.791Z,1005.23
2016-09-22T10:20:01.776Z,1005.23
2016-09-22T10:21:11.816Z,1005.24
2016-09-22T10:22:22.108Z,1005.19
2016-09-22T10:23:32.089Z,1005.21
2016-09-22T10:24:42.091Z,1005.16
2016-09-22T10:25:52.074Z,1005.19
2016-09-22T10:27:01.751Z,1005.19
2016-09-22T10:28:12.050Z,1005.2
2016-09-22T10:29:22.322Z,1005.19
2016-09-22T10:30:32.615Z,1005.2
2016-09-22T10:31:42.615Z,1005.23
2016-09-22T10:32:52.927Z,1005.27
2016-09-22T10:34:02.636Z,1005.27
2016-09-22T10:35:12.343Z,1005.24
2016-09-22T10:36:21.728Z,1005.23
2016-09-22T10:37:31.090Z,1005.21
2016-09-22T10:38:41.382Z,1005.19
2016-09-22T10:39:51.061Z,1005.24
2016-09-22T10:41:01.348Z,1005.22
2016-09-22T10:42:11.338Z,1005.22
2016-09-22T10:43:21.632Z,1005.17
2016-09-22T10:44:31.926Z,1005.2
2016-09-22T10:45:41.937Z,1005.24
2016-09-22T10:46:52.228Z,1005.24
2016-09-22T10:48:01.910Z,1005.24
2016-09-22T10:49:11.894Z,1005.24
2016-09-22T10:50:21.900Z,1005.23
2016-09-22T10:51:31.886Z,1005.26
2016-09-22T10:52:41.883Z,1005.33
2016-09-22T10:53:52.185Z,1005.33
2016-09-22T10:55:02.499Z,1005.31
2016-09-22T10:56:12.488Z,1005.33
2016-09-22T10:57:22.469Z,1005.28
2016-09-22T10:58:32.144Z,1005.27
2016-09-22T10:59:42.439Z,1005.26
2016-09-22T11:00:52.736Z,1005.28
2016-09-22T11:02:02.724Z,1005.23
2016-09-22T11:03:13.004Z,1005.3
2016-09-22T11:04:23.015Z,1005.29
2016-09-22T11:05:33.311Z,1005.29
2016-09-22T11:06:43.309Z,1005.29
2016-09-22T11:07:53.624Z,1005.28
2016-09-22T11:09:03.612Z,1005.29
2016-09-22T11:10:13.595Z,1005.24
2016-09-22T11:11:23.576Z,1005.23
2016-09-22T11:12:33.872Z,1005.26
2016-09-22T11:13:43.230Z,1005.25
2016-09-22T11:14:53.212Z,1005.25
2016-09-22T11:16:03.191Z,1005.24
2016-09-22T11:17:13.488Z,1005.31
2016-09-22T11:18:23.776Z,1005.28
2016-09-22T11:19:34.076Z,1005.28
2016-09-22T11:20:44.059Z,1005.31
2016-09-22T11:21:54.369Z,1005.27
2016-09-22T11:23:04.346Z,1005.31
2016-09-22T11:24:14.650Z,1005.32
2016-09-22T11:25:24.645Z,1005.26
2016-09-22T11:26:34.622Z,1005.37
2016-09-22T11:27:44.604Z,1005.26
2016-09-22T11:28:54.596Z,1005.2
2016-09-22T11:30:04.587Z,1005.22
2016-09-22T11:31:14.284Z,1005.19
2016-09-22T11:32:24.567Z,1005.17
2016-09-22T11:33:34.548Z,1005.14
2016-09-22T11:34:44.539Z,1005.18
2016-09-22T11:35:54.525Z,1005.17
2016-09-22T11:37:04.511Z,1005.13
2016-09-22T11:38:14.480Z,1005.11
2016-09-22T11:39:24.164Z,1005.2
2016-09-22T11:40:34.453Z,1005.21
2016-09-22T11:41:44.444Z,1005.13
2016-09-22T11:42:54.425Z,1005.05
2016-09-22T11:44:04.716Z,1005.12
2016-09-22T11:45:14.696Z,1005.07
2016-09-22T11:46:24.998Z,1005.09
2016-09-22T11:47:34.984Z,1005.07
2016-09-22T11:48:44.964Z,1005.07
2016-09-22T11:49:54.955Z,1005.02
2016-09-22T11:51:05.239Z,1005.04
2016-09-22T11:52:15.240Z,1005.01
2016-09-22T11:53:25.517Z,1005.01
2016-09-22T11:54:35.810Z,1005.03
2016-09-22T11:55:45.815Z,1005.02
2016-09-22T11:56:56.122Z,1004.96
2016-09-22T11:58:06.114Z,1004.96
2016-09-22T11:59:16.096Z,1004.91
2016-09-22T12:00:26.393Z,1004.95
2016-09-22T12:01:36.391Z,1004.95
2016-09-22T12:02:46.384Z,1004.88
2016-09-22T12:03:56.667Z,1004.82
2016-09-22T12:05:06.356Z,1004.84
2016-09-22T12:06:16.666Z,1004.9
2016-09-22T12:07:26.673Z,1004.9
2016-09-22T12:08:36.346Z,1004.86
2016-09-22T12:09:46.331Z,1004.83
2016-09-22T12:10:56.330Z,1004.91
2016-09-22T12:12:06.631Z,1004.85
2016-09-22T12:13:16.319Z,1004.91
2016-09-22T12:14:26.618Z,1004.9
2016-09-22T12:15:36.958Z,1004.91
2016-09-22T12:16:47.279Z,1004.92
2016-09-22T12:17:57.565Z,1004.85
2016-09-22T12:19:07.561Z,1004.86
2016-09-22T12:20:17.573Z,1004.86
2016-09-22T12:21:28.102Z,1004.86
2016-09-22T12:22:38.076Z,1004.89
2016-09-22T12:23:48.365Z,1004.83
2016-09-22T12:24:58.350Z,1004.85
2016-09-22T12:26:08.021Z,1004.8
2016-09-22T12:27:18.319Z,1004.83
2016-09-22T12:28:28.327Z,1004.79
2016-09-22T12:29:38.302Z,1004.78
2016-09-22T12:30:48.004Z,1004.78
2016-09-22T12:31:57.982Z,1004.82
2016-09-22T12:33:08.297Z,1004.82
2016-09-22T12:34:18.620Z,1004.79
2016-09-22T12:35:28.613Z,1004.78
2016-09-22T12:36:38.897Z,1004.74
2016-09-22T12:37:49.184Z,1004.76
2016-09-22T12:38:59.475Z,1004.74
2016-09-22T12:40:09.803Z,1004.74
2016-09-22T12:41:19.814Z,1004.74
2016-09-22T12:42:30.126Z,1004.7
2016-09-22T12:43:40.118Z,1004.71
2016-09-22T12:44:50.111Z,1004.7
2016-09-22T12:46:00.092Z,1004.64
2016-09-22T12:47:09.144Z,1004.67
2016-09-22T12:48:19.141Z,1004.69
2016-09-22T12:49:29.135Z,1004.68
2016-09-22T12:50:38.804Z,1004.73
2016-09-22T12:51:48.786Z,1004.66
2016-09-22T12:52:58.767Z,1004.73
2016-09-22T12:54:08.764Z,1004.66
2016-09-22T12:55:18.762Z,1004.68
2016-09-22T12:56:28.753Z,1004.67
2016-09-22T12:57:38.729Z,1004.68
2016-09-22T12:58:49.015Z,1004.64
2016-09-22T12:59:59.305Z,1004.7
2016-09-22T13:01:09.295Z,1004.71
2016-09-22T13:02:18.967Z,1004.69
2016-09-22T13:03:29.255Z,1004.66
2016-09-22T13:04:39.555Z,1004.7
2016-09-22T13:05:49.236Z,1004.68
2016-09-22T13:06:58.913Z,1004.69
2016-09-22T13:08:09.209Z,1004.7
2016-09-22T13:09:19.502Z,1004.69
2016-09-22T13:10:29.488Z,1004.65
2016-09-22T13:11:39.484Z,1004.65
2016-09-22T13:12:49.787Z,1004.66
2016-09-22T13:14:00.071Z,1004.68
2016-09-22T13:15:10.072Z,1004.66
2016-09-22T13:16:20.054Z,1004.64
2016-09-22T13:17:30.350Z,1004.59
2016-09-22T13:18:40.340Z,1004.6
2016-09-22T13:19:50.643Z,1004.6
2016-09-22T13:21:00.937Z,1004.58
2016-09-22T13:22:11.291Z,1004.59
2016-09-22T13:23:21.573Z,1004.61
2016-09-22T13:24:31.879Z,1004.58
2016-09-22T13:25:41.880Z,1004.55
2016-09-22T13:26:52.174Z,1004.58
2016-09-22T13:28:02.475Z,1004.6
2016-09-22T13:29:12.483Z,1004.58
2016-09-22T13:30:22.429Z,1004.6
2016-09-22T13:31:32.413Z,1004.57
2016-09-22T13:32:42.741Z,1004.58
2016-09-22T13:33:52.748Z,1004.62
2016-09-22T13:35:02.741Z,1004.61
2016-09-22T13:36:13.049Z,1004.6
2016-09-22T13:37:22.490Z,1004.59
2016-09-22T13:38:32.794Z,1004.64
2016-09-22T13:39:43.334Z,1004.6
2016-09-22T13:40:53.384Z,1004.57
2016-09-22T13:42:03.675Z,1004.58
2016-09-22T13:43:13.346Z,1004.63
2016-09-22T13:44:23.563Z,1004.58
2016-09-22T13:45:33.545Z,1004.57
2016-09-22T13:46:43.542Z,1004.57
2016-09-22T13:47:52.899Z,1004.55
2016-09-22T13:49:03.195Z,1004.52
2016-09-22T13:50:13.191Z,1004.5
2016-09-22T13:51:23.494Z,1004.49
2016-09-22T13:52:33.191Z,1004.51
2016-09-22T13:53:43.182Z,1004.48
2016-09-22T13:54:53.489Z,1004.49
2016-09-22T13:56:03.805Z,1004.51
2016-09-22T13:57:14.108Z,1004.52
2016-09-22T13:58:24.419Z,1004.45
2016-09-22T13:59:34.422Z,1004.52
2016-09-22T14:00:44.402Z,1004.52
2016-09-22T14:01:54.723Z,1004.53
2016-09-22T14:03:05.312Z,1004.5
2016-09-22T14:04:15.673Z,1004.5
2016-09-22T14:05:26.055Z,1004.48
2016-09-22T14:06:36.108Z,1004.46
2016-09-22T14:07:46.737Z,1004.47
2016-09-22T14:08:56.706Z,1004.5
2016-09-22T14:10:07.090Z,1004.45
2016-09-22T14:11:17.141Z,1004.46
2016-09-22T14:12:27.187Z,1004.46
2016-09-22T14:13:37.225Z,1004.41
2016-09-22T14:14:47.569Z,1004.37
2016-09-22T14:15:57.938Z,1004.42
2016-09-22T14:17:07.987Z,1004.39
2016-09-22T14:18:18.023Z,1004.39
2016-09-22T14:19:28.048Z,1004.43
2016-09-22T14:20:38.423Z,1004.41
2016-09-22T14:21:48.772Z,1004.39
2016-09-22T14:22:59.126Z,1004.42
2016-09-22T14:24:09.184Z,1004.42
2016-09-22T14:25:19.205Z,1004.4
2016-09-22T14:26:28.934Z,1004.42
2016-09-22T14:27:38.990Z,1004.47
2016-09-22T14:28:49.332Z,1004.4
2016-09-22T14:29:59.670Z,1004.43
2016-09-22T14:31:09.700Z,1004.45
2016-09-22T14:32:20.043Z,1004.47
2016-09-22T14:33:30.041Z,1004.46
2016-09-22T14:34:40.379Z,1004.44
2016-09-22T14:35:50.683Z,1004.45
2016-09-22T14:37:00.676Z,1004.46
2016-09-22T14:38:10.684Z,1004.45
2016-09-22T14:39:20.677Z,1004.45
2016-09-22T14:40:30.371Z,1004.44
2016-09-22T14:41:40.372Z,1004.44